sensor_id;sensor_type;location;lat;lon;timestamp;P1;durP1;ratioP1;P2;durP2;ratioP2
6173;SDS011;3120;48.796;9.796;2024-03-08T00:00:13;53.40;;;27.00;;
6173;SDS011;3120;48.796;9.796;2024-03-08T00:02:40;60.50;;;28.13;;
6173;SDS011;3120;48.796;9.796;2024-03-08T00:05:06;52.40;;;25.90;;
6173;SDS011;3120;48.796;9.796;2024-03-08T00:07:36;53.63;;;25.55;;
6173;SDS011;3120;48.796;9.796;2024-03-08T00:10:06;55.30;;;27.33;;
6173;SDS011;3120;48.796;9.796;2024-03-08T00:12:36;57.25;;;27.90;;
6173;SDS011;3120;48.796;9.796;2024-03-08T00:15:02;60.80;;;27.95;;
6173;SDS011;3120;48.796;9.796;2024-03-08T00:17:28;48.85;;;26.98;;
6173;SDS011;3120;48.796;9.796;2024-03-08T00:19:53;53.08;;;26.63;;
6173;SDS011;3120;48.796;9.796;2024-03-08T00:22:19;60.30;;;28.48;;
6173;SDS011;3120;48.796;9.796;2024-03-08T00:24:45;66.13;;;30.33;;
6173;SDS011;3120;48.796;9.796;2024-03-08T00:27:10;62.53;;;29.42;;
6173;SDS011;3120;48.796;9.796;2024-03-08T00:29:36;60.10;;;29.67;;
6173;SDS011;3120;48.796;9.796;2024-03-08T00:32:03;58.80;;;25.85;;
6173;SDS011;3120;48.796;9.796;2024-03-08T00:34:29;62.10;;;26.27;;
6173;SDS011;3120;48.796;9.796;2024-03-08T00:36:55;53.75;;;26.17;;
6173;SDS011;3120;48.796;9.796;2024-03-08T00:39:20;57.47;;;26.95;;
6173;SDS011;3120;48.796;9.796;2024-03-08T00:41:46;58.00;;;28.27;;
6173;SDS011;3120;48.796;9.796;2024-03-08T00:44:12;58.72;;;26.48;;
6173;SDS011;3120;48.796;9.796;2024-03-08T00:46:38;55.60;;;28.70;;
6173;SDS011;3120;48.796;9.796;2024-03-08T00:49:03;58.20;;;27.98;;
6173;SDS011;3120;48.796;9.796;2024-03-08T00:51:29;51.03;;;25.63;;
6173;SDS011;3120;48.796;9.796;2024-03-08T00:53:55;60.97;;;28.40;;
6173;SDS011;3120;48.796;9.796;2024-03-08T00:56:20;52.53;;;26.63;;
6173;SDS011;3120;48.796;9.796;2024-03-08T00:58:46;49.50;;;25.95;;
6173;SDS011;3120;48.796;9.796;2024-03-08T01:01:12;59.00;;;28.30;;
6173;SDS011;3120;48.796;9.796;2024-03-08T01:03:42;56.08;;;28.35;;
6173;SDS011;3120;48.796;9.796;2024-03-08T01:06:08;57.13;;;26.98;;
6173;SDS011;3120;48.796;9.796;2024-03-08T01:08:34;50.42;;;24.08;;
6173;SDS011;3120;48.796;9.796;2024-03-08T01:10:59;49.05;;;24.73;;
6173;SDS011;3120;48.796;9.796;2024-03-08T01:13:25;43.58;;;22.30;;
6173;SDS011;3120;48.796;9.796;2024-03-08T01:15:51;43.30;;;21.15;;
6173;SDS011;3120;48.796;9.796;2024-03-08T01:18:16;40.15;;;19.67;;
6173;SDS011;3120;48.796;9.796;2024-03-08T01:20:42;43.72;;;20.70;;
6173;SDS011;3120;48.796;9.796;2024-03-08T01:23:07;41.40;;;21.02;;
6173;SDS011;3120;48.796;9.796;2024-03-08T01:25:33;43.00;;;21.73;;
6173;SDS011;3120;48.796;9.796;2024-03-08T01:27:59;44.75;;;22.65;;
6173;SDS011;3120;48.796;9.796;2024-03-08T01:30:24;43.28;;;21.17;;
6173;SDS011;3120;48.796;9.796;2024-03-08T01:32:50;38.30;;;20.77;;
6173;SDS011;3120;48.796;9.796;2024-03-08T01:35:16;43.15;;;22.60;;
6173;SDS011;3120;48.796;9.796;2024-03-08T01:37:41;44.35;;;21.42;;
6173;SDS011;3120;48.796;9.796;2024-03-08T01:40:07;41.55;;;21.05;;
6173;SDS011;3120;48.796;9.796;2024-03-08T01:42:33;39.65;;;20.98;;
6173;SDS011;3120;48.796;9.796;2024-03-08T01:45:02;40.63;;;21.35;;
6173;SDS011;3120;48.796;9.796;2024-03-08T01:47:31;42.15;;;21.95;;
6173;SDS011;3120;48.796;9.796;2024-03-08T01:49:58;44.80;;;22.23;;
6173;SDS011;3120;48.796;9.796;2024-03-08T01:52:26;42.25;;;22.45;;
6173;SDS011;3120;48.796;9.796;2024-03-08T01:54:53;48.97;;;20.88;;
6173;SDS011;3120;48.796;9.796;2024-03-08T01:57:19;44.47;;;21.33;;
6173;SDS011;3120;48.796;9.796;2024-03-08T01:59:45;50.35;;;24.55;;
6173;SDS011;3120;48.796;9.796;2024-03-08T02:02:11;43.55;;;22.77;;
6173;SDS011;3120;48.796;9.796;2024-03-08T02:04:42;48.30;;;23.17;;
6173;SDS011;3120;48.796;9.796;2024-03-08T02:07:09;40.20;;;20.17;;
6173;SDS011;3120;48.796;9.796;2024-03-08T02:09:34;43.25;;;21.33;;
6173;SDS011;3120;48.796;9.796;2024-03-08T02:12:00;45.95;;;23.38;;
6173;SDS011;3120;48.796;9.796;2024-03-08T02:14:26;41.78;;;21.63;;
6173;SDS011;3120;48.796;9.796;2024-03-08T02:16:51;45.22;;;22.50;;
6173;SDS011;3120;48.796;9.796;2024-03-08T02:19:17;43.03;;;21.00;;
6173;SDS011;3120;48.796;9.796;2024-03-08T02:21:42;37.97;;;20.20;;
6173;SDS011;3120;48.796;9.796;2024-03-08T02:24:08;50.15;;;20.88;;
6173;SDS011;3120;48.796;9.796;2024-03-08T02:26:35;44.03;;;20.85;;
6173;SDS011;3120;48.796;9.796;2024-03-08T02:29:01;44.42;;;22.20;;
6173;SDS011;3120;48.796;9.796;2024-03-08T02:31:26;41.40;;;21.20;;
6173;SDS011;3120;48.796;9.796;2024-03-08T02:33:52;42.85;;;21.05;;
6173;SDS011;3120;48.796;9.796;2024-03-08T02:36:18;44.17;;;19.98;;
6173;SDS011;3120;48.796;9.796;2024-03-08T02:38:43;38.15;;;20.35;;
6173;SDS011;3120;48.796;9.796;2024-03-08T02:41:09;41.25;;;21.73;;
6173;SDS011;3120;48.796;9.796;2024-03-08T02:43:35;39.58;;;20.55;;
6173;SDS011;3120;48.796;9.796;2024-03-08T02:46:00;37.28;;;19.83;;
6173;SDS011;3120;48.796;9.796;2024-03-08T02:48:26;42.05;;;20.70;;
6173;SDS011;3120;48.796;9.796;2024-03-08T02:50:51;39.60;;;19.95;;
6173;SDS011;3120;48.796;9.796;2024-03-08T02:53:17;40.70;;;20.70;;
6173;SDS011;3120;48.796;9.796;2024-03-08T02:55:43;46.38;;;20.50;;
6173;SDS011;3120;48.796;9.796;2024-03-08T02:58:09;34.70;;;19.33;;
6173;SDS011;3120;48.796;9.796;2024-03-08T03:00:35;36.65;;;19.85;;
6173;SDS011;3120;48.796;9.796;2024-03-08T03:03:02;42.65;;;20.73;;
6173;SDS011;3120;48.796;9.796;2024-03-08T03:05:28;34.58;;;19.13;;
6173;SDS011;3120;48.796;9.796;2024-03-08T03:07:54;36.67;;;20.00;;
6173;SDS011;3120;48.796;9.796;2024-03-08T03:10:20;41.38;;;20.25;;
6173;SDS011;3120;48.796;9.796;2024-03-08T03:12:46;40.22;;;20.58;;
6173;SDS011;3120;48.796;9.796;2024-03-08T03:15:13;39.00;;;20.63;;
6173;SDS011;3120;48.796;9.796;2024-03-08T03:17:39;36.70;;;19.65;;
6173;SDS011;3120;48.796;9.796;2024-03-08T03:20:08;38.70;;;20.70;;
6173;SDS011;3120;48.796;9.796;2024-03-08T03:22:36;40.08;;;21.10;;
6173;SDS011;3120;48.796;9.796;2024-03-08T03:25:02;42.78;;;20.25;;
6173;SDS011;3120;48.796;9.796;2024-03-08T03:27:31;41.72;;;20.83;;
6173;SDS011;3120;48.796;9.796;2024-03-08T03:29:57;36.28;;;20.38;;
6173;SDS011;3120;48.796;9.796;2024-03-08T03:32:23;40.40;;;21.58;;
6173;SDS011;3120;48.796;9.796;2024-03-08T03:34:49;40.38;;;20.23;;
6173;SDS011;3120;48.796;9.796;2024-03-08T03:37:18;43.45;;;20.95;;
6173;SDS011;3120;48.796;9.796;2024-03-08T03:39:46;38.80;;;20.02;;
6173;SDS011;3120;48.796;9.796;2024-03-08T03:42:17;36.08;;;19.45;;
6173;SDS011;3120;48.796;9.796;2024-03-08T03:44:45;36.75;;;17.70;;
6173;SDS011;3120;48.796;9.796;2024-03-08T03:47:11;38.35;;;20.05;;
6173;SDS011;3120;48.796;9.796;2024-03-08T03:49:36;41.92;;;20.05;;
6173;SDS011;3120;48.796;9.796;2024-03-08T03:52:02;43.00;;;20.48;;
6173;SDS011;3120;48.796;9.796;2024-03-08T03:54:29;40.00;;;21.58;;
6173;SDS011;3120;48.796;9.796;2024-03-08T03:56:55;41.50;;;22.67;;
6173;SDS011;3120;48.796;9.796;2024-03-08T03:59:21;41.08;;;21.10;;
6173;SDS011;3120;48.796;9.796;2024-03-08T04:01:46;43.47;;;21.20;;
6173;SDS011;3120;48.796;9.796;2024-03-08T04:04:12;47.25;;;20.33;;
6173;SDS011;3120;48.796;9.796;2024-03-08T04:06:38;37.75;;;21.25;;
6173;SDS011;3120;48.796;9.796;2024-03-08T04:09:03;39.45;;;20.30;;
6173;SDS011;3120;48.796;9.796;2024-03-08T04:11:29;43.20;;;21.27;;
6173;SDS011;3120;48.796;9.796;2024-03-08T04:13:55;40.78;;;21.30;;
6173;SDS011;3120;48.796;9.796;2024-03-08T04:16:21;40.00;;;21.52;;
6173;SDS011;3120;48.796;9.796;2024-03-08T04:18:46;41.60;;;21.65;;
6173;SDS011;3120;48.796;9.796;2024-03-08T04:21:12;38.35;;;21.70;;
6173;SDS011;3120;48.796;9.796;2024-03-08T04:23:38;43.20;;;21.70;;
6173;SDS011;3120;48.796;9.796;2024-03-08T04:26:04;41.25;;;22.33;;
6173;SDS011;3120;48.796;9.796;2024-03-08T04:28:31;40.38;;;20.48;;
6173;SDS011;3120;48.796;9.796;2024-03-08T04:30:57;45.65;;;22.13;;
6173;SDS011;3120;48.796;9.796;2024-03-08T04:33:25;40.65;;;21.95;;
6173;SDS011;3120;48.796;9.796;2024-03-08T04:35:51;37.63;;;21.42;;
6173;SDS011;3120;48.796;9.796;2024-03-08T04:38:17;40.70;;;22.05;;
6173;SDS011;3120;48.796;9.796;2024-03-08T04:40:42;47.13;;;23.38;;
6173;SDS011;3120;48.796;9.796;2024-03-08T04:43:08;41.58;;;22.25;;
6173;SDS011;3120;48.796;9.796;2024-03-08T04:45:35;42.15;;;22.27;;
6173;SDS011;3120;48.796;9.796;2024-03-08T04:48:01;43.90;;;22.63;;
6173;SDS011;3120;48.796;9.796;2024-03-08T04:50:27;45.67;;;24.25;;
6173;SDS011;3120;48.796;9.796;2024-03-08T04:52:55;42.45;;;22.88;;
6173;SDS011;3120;48.796;9.796;2024-03-08T04:55:21;42.08;;;22.58;;
6173;SDS011;3120;48.796;9.796;2024-03-08T04:57:48;44.70;;;24.10;;
6173;SDS011;3120;48.796;9.796;2024-03-08T05:00:14;47.60;;;23.08;;
6173;SDS011;3120;48.796;9.796;2024-03-08T05:02:40;46.50;;;24.45;;
6173;SDS011;3120;48.796;9.796;2024-03-08T05:05:09;44.05;;;23.33;;
6173;SDS011;3120;48.796;9.796;2024-03-08T05:07:37;45.80;;;24.85;;
6173;SDS011;3120;48.796;9.796;2024-03-08T05:10:04;43.03;;;23.38;;
6173;SDS011;3120;48.796;9.796;2024-03-08T05:12:31;48.67;;;24.65;;
6173;SDS011;3120;48.796;9.796;2024-03-08T05:14:57;47.03;;;24.75;;
6173;SDS011;3120;48.796;9.796;2024-03-08T05:17:23;47.95;;;24.30;;
6173;SDS011;3120;48.796;9.796;2024-03-08T05:19:49;51.38;;;24.90;;
6173;SDS011;3120;48.796;9.796;2024-03-08T05:22:15;52.35;;;26.60;;
6173;SDS011;3120;48.796;9.796;2024-03-08T05:24:40;48.70;;;26.58;;
6173;SDS011;3120;48.796;9.796;2024-03-08T05:27:06;46.50;;;24.55;;
6173;SDS011;3120;48.796;9.796;2024-03-08T05:29:32;50.00;;;25.02;;
6173;SDS011;3120;48.796;9.796;2024-03-08T05:31:58;49.17;;;26.65;;
6173;SDS011;3120;48.796;9.796;2024-03-08T05:34:24;45.58;;;23.08;;
6173;SDS011;3120;48.796;9.796;2024-03-08T05:36:51;46.15;;;24.77;;
6173;SDS011;3120;48.796;9.796;2024-03-08T05:39:17;52.78;;;26.52;;
6173;SDS011;3120;48.796;9.796;2024-03-08T05:41:43;49.28;;;25.80;;
6173;SDS011;3120;48.796;9.796;2024-03-08T05:44:10;47.38;;;24.52;;
6173;SDS011;3120;48.796;9.796;2024-03-08T05:46:37;53.90;;;25.08;;
6173;SDS011;3120;48.796;9.796;2024-03-08T05:49:03;51.55;;;27.05;;
6173;SDS011;3120;48.796;9.796;2024-03-08T05:51:30;49.50;;;25.98;;
6173;SDS011;3120;48.796;9.796;2024-03-08T05:53:56;47.60;;;25.38;;
6173;SDS011;3120;48.796;9.796;2024-03-08T05:56:24;53.90;;;25.65;;
6173;SDS011;3120;48.796;9.796;2024-03-08T05:58:50;43.95;;;25.00;;
6173;SDS011;3120;48.796;9.796;2024-03-08T06:01:15;50.20;;;23.63;;
6173;SDS011;3120;48.796;9.796;2024-03-08T06:03:41;52.63;;;25.20;;
6173;SDS011;3120;48.796;9.796;2024-03-08T06:06:13;53.63;;;28.60;;
6173;SDS011;3120;48.796;9.796;2024-03-08T06:08:40;87.70;;;39.50;;
6173;SDS011;3120;48.796;9.796;2024-03-08T06:11:08;161.65;;;67.18;;
6173;SDS011;3120;48.796;9.796;2024-03-08T06:13:33;140.48;;;59.20;;
6173;SDS011;3120;48.796;9.796;2024-03-08T06:16:00;76.63;;;36.35;;
6173;SDS011;3120;48.796;9.796;2024-03-08T06:18:30;112.65;;;47.67;;
6173;SDS011;3120;48.796;9.796;2024-03-08T06:20:55;142.98;;;56.28;;
6173;SDS011;3120;48.796;9.796;2024-03-08T06:23:21;122.32;;;50.33;;
6173;SDS011;3120;48.796;9.796;2024-03-08T06:25:47;64.45;;;31.42;;
6173;SDS011;3120;48.796;9.796;2024-03-08T06:28:13;79.15;;;33.65;;
6173;SDS011;3120;48.796;9.796;2024-03-08T06:30:39;232.07;;;86.93;;
6173;SDS011;3120;48.796;9.796;2024-03-08T06:33:05;77.22;;;39.20;;
6173;SDS011;3120;48.796;9.796;2024-03-08T06:35:30;177.25;;;70.13;;
6173;SDS011;3120;48.796;9.796;2024-03-08T06:37:58;74.47;;;36.28;;
6173;SDS011;3120;48.796;9.796;2024-03-08T06:40:23;63.33;;;29.92;;
6173;SDS011;3120;48.796;9.796;2024-03-08T06:42:49;55.13;;;27.85;;
6173;SDS011;3120;48.796;9.796;2024-03-08T06:45:17;47.10;;;26.05;;
6173;SDS011;3120;48.796;9.796;2024-03-08T06:47:45;47.17;;;23.02;;
6173;SDS011;3120;48.796;9.796;2024-03-08T06:50:11;46.92;;;24.15;;
6173;SDS011;3120;48.796;9.796;2024-03-08T06:52:37;45.42;;;23.67;;
6173;SDS011;3120;48.796;9.796;2024-03-08T06:55:03;42.38;;;23.35;;
6173;SDS011;3120;48.796;9.796;2024-03-08T06:57:30;42.55;;;23.33;;
6173;SDS011;3120;48.796;9.796;2024-03-08T06:59:56;46.25;;;24.05;;
6173;SDS011;3120;48.796;9.796;2024-03-08T07:02:24;40.65;;;21.60;;
6173;SDS011;3120;48.796;9.796;2024-03-08T07:04:50;40.75;;;22.52;;
6173;SDS011;3120;48.796;9.796;2024-03-08T07:07:17;47.83;;;25.67;;
6173;SDS011;3120;48.796;9.796;2024-03-08T07:09:45;44.35;;;23.55;;
6173;SDS011;3120;48.796;9.796;2024-03-08T07:12:11;45.22;;;23.10;;
6173;SDS011;3120;48.796;9.796;2024-03-08T07:14:38;45.35;;;24.45;;
6173;SDS011;3120;48.796;9.796;2024-03-08T07:17:07;39.83;;;22.25;;
6173;SDS011;3120;48.796;9.796;2024-03-08T07:19:36;43.22;;;22.83;;
6173;SDS011;3120;48.796;9.796;2024-03-08T07:22:03;41.97;;;23.58;;
6173;SDS011;3120;48.796;9.796;2024-03-08T07:24:30;39.35;;;22.42;;
6173;SDS011;3120;48.796;9.796;2024-03-08T07:27:13;42.22;;;23.40;;
6173;SDS011;3120;48.796;9.796;2024-03-08T07:29:39;41.28;;;21.98;;
6173;SDS011;3120;48.796;9.796;2024-03-08T07:32:05;43.40;;;21.83;;
6173;SDS011;3120;48.796;9.796;2024-03-08T07:34:50;42.00;;;22.52;;
6173;SDS011;3120;48.796;9.796;2024-03-08T07:37:17;41.47;;;22.10;;
6173;SDS011;3120;48.796;9.796;2024-03-08T07:39:44;43.60;;;21.13;;
6173;SDS011;3120;48.796;9.796;2024-03-08T07:42:09;45.25;;;23.30;;
6173;SDS011;3120;48.796;9.796;2024-03-08T07:44:37;45.92;;;22.73;;
6173;SDS011;3120;48.796;9.796;2024-03-08T07:47:03;39.05;;;21.92;;
6173;SDS011;3120;48.796;9.796;2024-03-08T07:49:29;39.40;;;22.00;;
6173;SDS011;3120;48.796;9.796;2024-03-08T07:51:55;44.95;;;22.75;;
6173;SDS011;3120;48.796;9.796;2024-03-08T07:54:21;43.88;;;22.05;;
6173;SDS011;3120;48.796;9.796;2024-03-08T07:56:47;44.80;;;22.10;;
6173;SDS011;3120;48.796;9.796;2024-03-08T07:59:12;43.58;;;23.42;;
6173;SDS011;3120;48.796;9.796;2024-03-08T08:01:38;45.00;;;23.67;;
6173;SDS011;3120;48.796;9.796;2024-03-08T08:04:04;48.97;;;27.10;;
6173;SDS011;3120;48.796;9.796;2024-03-08T08:06:30;40.47;;;22.05;;
6173;SDS011;3120;48.796;9.796;2024-03-08T08:08:58;42.92;;;22.80;;
6173;SDS011;3120;48.796;9.796;2024-03-08T08:11:27;41.38;;;22.73;;
6173;SDS011;3120;48.796;9.796;2024-03-08T08:13:53;36.30;;;20.80;;
6173;SDS011;3120;48.796;9.796;2024-03-08T08:16:25;43.53;;;22.13;;
6173;SDS011;3120;48.796;9.796;2024-03-08T08:18:50;40.40;;;22.23;;
6173;SDS011;3120;48.796;9.796;2024-03-08T08:21:17;40.63;;;20.73;;
6173;SDS011;3120;48.796;9.796;2024-03-08T08:23:43;40.72;;;21.95;;
6173;SDS011;3120;48.796;9.796;2024-03-08T08:26:09;42.28;;;20.30;;
6173;SDS011;3120;48.796;9.796;2024-03-08T08:28:36;41.35;;;20.75;;
6173;SDS011;3120;48.796;9.796;2024-03-08T08:31:01;45.38;;;23.48;;
6173;SDS011;3120;48.796;9.796;2024-03-08T08:33:29;49.30;;;22.13;;
6173;SDS011;3120;48.796;9.796;2024-03-08T08:35:54;39.22;;;21.15;;
6173;SDS011;3120;48.796;9.796;2024-03-08T08:38:21;42.17;;;21.67;;
6173;SDS011;3120;48.796;9.796;2024-03-08T08:40:46;43.78;;;21.52;;
6173;SDS011;3120;48.796;9.796;2024-03-08T08:43:12;40.50;;;20.90;;
6173;SDS011;3120;48.796;9.796;2024-03-08T08:45:39;41.65;;;23.95;;
6173;SDS011;3120;48.796;9.796;2024-03-08T08:48:04;45.78;;;23.73;;
6173;SDS011;3120;48.796;9.796;2024-03-08T08:50:31;45.13;;;22.60;;
6173;SDS011;3120;48.796;9.796;2024-03-08T08:52:57;51.17;;;24.05;;
6173;SDS011;3120;48.796;9.796;2024-03-08T08:55:23;49.67;;;22.38;;
6173;SDS011;3120;48.796;9.796;2024-03-08T08:57:52;46.45;;;23.65;;
6173;SDS011;3120;48.796;9.796;2024-03-08T09:00:21;41.85;;;20.92;;
6173;SDS011;3120;48.796;9.796;2024-03-08T09:02:51;42.28;;;21.20;;
6173;SDS011;3120;48.796;9.796;2024-03-08T09:05:20;42.10;;;22.08;;
6173;SDS011;3120;48.796;9.796;2024-03-08T09:07:46;44.80;;;22.58;;
6173;SDS011;3120;48.796;9.796;2024-03-08T09:10:12;40.70;;;21.73;;
6173;SDS011;3120;48.796;9.796;2024-03-08T09:12:39;41.92;;;21.40;;
6173;SDS011;3120;48.796;9.796;2024-03-08T09:15:05;41.50;;;21.88;;
6173;SDS011;3120;48.796;9.796;2024-03-08T09:17:33;47.70;;;23.90;;
6173;SDS011;3120;48.796;9.796;2024-03-08T09:19:59;46.50;;;23.48;;
6173;SDS011;3120;48.796;9.796;2024-03-08T09:22:24;44.83;;;22.85;;
6173;SDS011;3120;48.796;9.796;2024-03-08T09:24:50;48.63;;;26.98;;
6173;SDS011;3120;48.796;9.796;2024-03-08T09:27:15;41.90;;;21.02;;
6173;SDS011;3120;48.796;9.796;2024-03-08T09:29:42;45.40;;;22.80;;
6173;SDS011;3120;48.796;9.796;2024-03-08T09:32:10;40.60;;;20.55;;
6173;SDS011;3120;48.796;9.796;2024-03-08T09:34:36;50.03;;;25.27;;
6173;SDS011;3120;48.796;9.796;2024-03-08T09:37:02;53.50;;;26.25;;
6173;SDS011;3120;48.796;9.796;2024-03-08T09:39:29;42.60;;;22.63;;
6173;SDS011;3120;48.796;9.796;2024-03-08T09:41:55;43.35;;;22.25;;
6173;SDS011;3120;48.796;9.796;2024-03-08T09:44:20;46.85;;;23.38;;
6173;SDS011;3120;48.796;9.796;2024-03-08T09:46:46;46.25;;;22.98;;
6173;SDS011;3120;48.796;9.796;2024-03-08T09:49:25;45.63;;;23.98;;
6173;SDS011;3120;48.796;9.796;2024-03-08T09:52:13;39.00;;;20.95;;
6173;SDS011;3120;48.796;9.796;2024-03-08T09:54:40;44.42;;;21.95;;
6173;SDS011;3120;48.796;9.796;2024-03-08T09:57:09;40.85;;;22.30;;
6173;SDS011;3120;48.796;9.796;2024-03-08T09:59:35;39.03;;;21.02;;
6173;SDS011;3120;48.796;9.796;2024-03-08T10:02:01;41.80;;;23.17;;
6173;SDS011;3120;48.796;9.796;2024-03-08T10:04:28;43.30;;;23.23;;
6173;SDS011;3120;48.796;9.796;2024-03-08T10:06:57;43.92;;;23.27;;
6173;SDS011;3120;48.796;9.796;2024-03-08T10:09:24;39.20;;;20.83;;
6173;SDS011;3120;48.796;9.796;2024-03-08T10:11:58;46.70;;;22.80;;
6173;SDS011;3120;48.796;9.796;2024-03-08T10:14:24;48.38;;;22.75;;
6173;SDS011;3120;48.796;9.796;2024-03-08T10:16:51;42.03;;;21.90;;
6173;SDS011;3120;48.796;9.796;2024-03-08T10:19:17;42.97;;;23.30;;
6173;SDS011;3120;48.796;9.796;2024-03-08T10:21:52;43.28;;;22.70;;
6173;SDS011;3120;48.796;9.796;2024-03-08T10:24:18;48.67;;;23.48;;
6173;SDS011;3120;48.796;9.796;2024-03-08T10:26:44;44.72;;;22.58;;
6173;SDS011;3120;48.796;9.796;2024-03-08T10:29:10;42.17;;;22.23;;
6173;SDS011;3120;48.796;9.796;2024-03-08T10:31:40;42.30;;;22.88;;
6173;SDS011;3120;48.796;9.796;2024-03-08T10:34:09;40.97;;;22.83;;
6173;SDS011;3120;48.796;9.796;2024-03-08T10:36:34;46.50;;;24.20;;
6173;SDS011;3120;48.796;9.796;2024-03-08T10:39:03;39.78;;;21.27;;
6173;SDS011;3120;48.796;9.796;2024-03-08T10:41:32;38.25;;;22.17;;
6173;SDS011;3120;48.796;9.796;2024-03-08T10:44:10;38.28;;;22.33;;
6173;SDS011;3120;48.796;9.796;2024-03-08T10:47:08;43.33;;;24.52;;
6173;SDS011;3120;48.796;9.796;2024-03-08T10:50:08;36.10;;;20.35;;
6173;SDS011;3120;48.796;9.796;2024-03-08T10:52:41;35.75;;;20.50;;
6173;SDS011;3120;48.796;9.796;2024-03-08T10:55:07;36.85;;;22.42;;
6173;SDS011;3120;48.796;9.796;2024-03-08T10:57:38;40.00;;;22.05;;
6173;SDS011;3120;48.796;9.796;2024-03-08T11:00:05;33.55;;;20.02;;
6173;SDS011;3120;48.796;9.796;2024-03-08T11:02:35;36.85;;;22.25;;
6173;SDS011;3120;48.796;9.796;2024-03-08T11:05:02;37.75;;;21.60;;
6173;SDS011;3120;48.796;9.796;2024-03-08T11:07:30;33.97;;;20.55;;
6173;SDS011;3120;48.796;9.796;2024-03-08T11:10:02;36.10;;;21.47;;
6173;SDS011;3120;48.796;9.796;2024-03-08T11:12:30;34.75;;;22.25;;
6173;SDS011;3120;48.796;9.796;2024-03-08T11:15:10;36.90;;;21.45;;
6173;SDS011;3120;48.796;9.796;2024-03-08T11:20:08;35.13;;;21.05;;
6173;SDS011;3120;48.796;9.796;2024-03-08T11:22:40;35.38;;;20.42;;
6173;SDS011;3120;48.796;9.796;2024-03-08T11:25:10;32.47;;;19.85;;
6173;SDS011;3120;48.796;9.796;2024-03-08T11:30:43;32.70;;;20.65;;
6173;SDS011;3120;48.796;9.796;2024-03-08T11:33:13;34.85;;;20.98;;
6173;SDS011;3120;48.796;9.796;2024-03-08T11:35:39;35.85;;;19.48;;
6173;SDS011;3120;48.796;9.796;2024-03-08T11:38:07;33.00;;;20.48;;
6173;SDS011;3120;48.796;9.796;2024-03-08T11:40:34;32.28;;;19.50;;
6173;SDS011;3120;48.796;9.796;2024-03-08T11:43:00;39.00;;;20.80;;
6173;SDS011;3120;48.796;9.796;2024-03-08T11:45:32;28.92;;;19.35;;
6173;SDS011;3120;48.796;9.796;2024-03-08T11:48:01;35.05;;;19.42;;
6173;SDS011;3120;48.796;9.796;2024-03-08T11:50:30;30.02;;;19.42;;
6173;SDS011;3120;48.796;9.796;2024-03-08T11:53:02;33.35;;;19.67;;
6173;SDS011;3120;48.796;9.796;2024-03-08T11:55:29;30.38;;;20.35;;
6173;SDS011;3120;48.796;9.796;2024-03-08T11:58:03;30.15;;;19.60;;
6173;SDS011;3120;48.796;9.796;2024-03-08T12:00:30;29.17;;;19.98;;
6173;SDS011;3120;48.796;9.796;2024-03-08T12:03:06;34.60;;;20.40;;
6173;SDS011;3120;48.796;9.796;2024-03-08T12:05:34;32.23;;;19.87;;
6173;SDS011;3120;48.796;9.796;2024-03-08T12:08:00;32.55;;;20.23;;
6173;SDS011;3120;48.796;9.796;2024-03-08T12:10:37;33.72;;;21.23;;
6173;SDS011;3120;48.796;9.796;2024-03-08T12:13:03;37.03;;;20.63;;
6173;SDS011;3120;48.796;9.796;2024-03-08T12:15:31;34.10;;;19.75;;
6173;SDS011;3120;48.796;9.796;2024-03-08T12:17:58;32.92;;;20.08;;
6173;SDS011;3120;48.796;9.796;2024-03-08T12:20:26;30.83;;;19.30;;
6173;SDS011;3120;48.796;9.796;2024-03-08T12:22:55;31.70;;;19.13;;
6173;SDS011;3120;48.796;9.796;2024-03-08T12:25:32;31.95;;;19.40;;
6173;SDS011;3120;48.796;9.796;2024-03-08T12:28:08;31.52;;;18.63;;
6173;SDS011;3120;48.796;9.796;2024-03-08T12:30:50;28.77;;;18.52;;
6173;SDS011;3120;48.796;9.796;2024-03-08T12:33:21;31.50;;;19.70;;
6173;SDS011;3120;48.796;9.796;2024-03-08T12:35:50;30.65;;;19.73;;
6173;SDS011;3120;48.796;9.796;2024-03-08T12:38:22;27.40;;;18.65;;
6173;SDS011;3120;48.796;9.796;2024-03-08T12:40:54;36.35;;;19.80;;
6173;SDS011;3120;48.796;9.796;2024-03-08T12:43:21;37.13;;;18.73;;
6173;SDS011;3120;48.796;9.796;2024-03-08T12:45:47;31.30;;;19.15;;
6173;SDS011;3120;48.796;9.796;2024-03-08T12:48:13;30.38;;;18.90;;
6173;SDS011;3120;48.796;9.796;2024-03-08T12:50:40;29.95;;;19.88;;
6173;SDS011;3120;48.796;9.796;2024-03-08T12:53:08;28.45;;;18.15;;
6173;SDS011;3120;48.796;9.796;2024-03-08T12:55:33;31.67;;;20.23;;
6173;SDS011;3120;48.796;9.796;2024-03-08T12:57:59;31.13;;;19.10;;
6173;SDS011;3120;48.796;9.796;2024-03-08T13:00:25;34.30;;;18.83;;
6173;SDS011;3120;48.796;9.796;2024-03-08T13:02:53;31.15;;;19.27;;
6173;SDS011;3120;48.796;9.796;2024-03-08T13:05:19;29.85;;;17.40;;
6173;SDS011;3120;48.796;9.796;2024-03-08T13:07:45;29.27;;;17.65;;
6173;SDS011;3120;48.796;9.796;2024-03-08T13:10:14;28.55;;;18.63;;
6173;SDS011;3120;48.796;9.796;2024-03-08T13:12:44;27.25;;;18.58;;
6173;SDS011;3120;48.796;9.796;2024-03-08T13:15:09;29.60;;;17.70;;
6173;SDS011;3120;48.796;9.796;2024-03-08T13:17:45;31.88;;;18.45;;
6173;SDS011;3120;48.796;9.796;2024-03-08T13:20:13;25.50;;;16.60;;
6173;SDS011;3120;48.796;9.796;2024-03-08T13:22:43;29.98;;;17.63;;
6173;SDS011;3120;48.796;9.796;2024-03-08T13:25:10;26.65;;;16.27;;
6173;SDS011;3120;48.796;9.796;2024-03-08T13:27:41;27.88;;;18.60;;
6173;SDS011;3120;48.796;9.796;2024-03-08T13:30:10;26.35;;;16.73;;
6173;SDS011;3120;48.796;9.796;2024-03-08T13:32:43;24.05;;;16.80;;
6173;SDS011;3120;48.796;9.796;2024-03-08T13:35:09;32.88;;;16.35;;
6173;SDS011;3120;48.796;9.796;2024-03-08T13:37:42;26.92;;;16.85;;
6173;SDS011;3120;48.796;9.796;2024-03-08T13:40:08;26.70;;;16.00;;
6173;SDS011;3120;48.796;9.796;2024-03-08T13:42:39;25.67;;;15.43;;
6173;SDS011;3120;48.796;9.796;2024-03-08T13:45:07;22.35;;;14.68;;
6173;SDS011;3120;48.796;9.796;2024-03-08T13:47:37;23.83;;;15.43;;
6173;SDS011;3120;48.796;9.796;2024-03-08T13:50:04;23.60;;;14.82;;
6173;SDS011;3120;48.796;9.796;2024-03-08T13:52:32;26.60;;;15.52;;
6173;SDS011;3120;48.796;9.796;2024-03-08T13:54:59;25.98;;;15.65;;
6173;SDS011;3120;48.796;9.796;2024-03-08T13:57:25;26.50;;;15.30;;
6173;SDS011;3120;48.796;9.796;2024-03-08T13:59:52;28.33;;;15.15;;
6173;SDS011;3120;48.796;9.796;2024-03-08T14:02:18;27.13;;;16.67;;
6173;SDS011;3120;48.796;9.796;2024-03-08T14:04:43;26.58;;;15.55;;
6173;SDS011;3120;48.796;9.796;2024-03-08T14:07:09;26.70;;;15.55;;
6173;SDS011;3120;48.796;9.796;2024-03-08T14:09:36;27.05;;;16.05;;
6173;SDS011;3120;48.796;9.796;2024-03-08T14:12:07;22.77;;;15.38;;
6173;SDS011;3120;48.796;9.796;2024-03-08T14:14:33;24.40;;;15.93;;
6173;SDS011;3120;48.796;9.796;2024-03-08T14:17:00;26.88;;;16.33;;
6173;SDS011;3120;48.796;9.796;2024-03-08T14:19:29;24.00;;;15.60;;
6173;SDS011;3120;48.796;9.796;2024-03-08T14:21:59;24.65;;;14.90;;
6173;SDS011;3120;48.796;9.796;2024-03-08T14:24:24;24.85;;;14.98;;
6173;SDS011;3120;48.796;9.796;2024-03-08T14:26:50;27.98;;;14.98;;
6173;SDS011;3120;48.796;9.796;2024-03-08T14:29:16;23.95;;;15.52;;
6173;SDS011;3120;48.796;9.796;2024-03-08T14:31:43;25.00;;;15.38;;
6173;SDS011;3120;48.796;9.796;2024-03-08T14:34:10;24.45;;;15.93;;
6173;SDS011;3120;48.796;9.796;2024-03-08T14:36:35;25.92;;;15.02;;
6173;SDS011;3120;48.796;9.796;2024-03-08T14:39:01;33.22;;;18.60;;
6173;SDS011;3120;48.796;9.796;2024-03-08T14:41:27;21.42;;;14.02;;
6173;SDS011;3120;48.796;9.796;2024-03-08T14:43:53;22.25;;;14.07;;
6173;SDS011;3120;48.796;9.796;2024-03-08T14:46:18;23.85;;;14.40;;
6173;SDS011;3120;48.796;9.796;2024-03-08T14:48:49;28.30;;;16.30;;
6173;SDS011;3120;48.796;9.796;2024-03-08T14:51:20;31.88;;;16.63;;
6173;SDS011;3120;48.796;9.796;2024-03-08T14:53:51;25.08;;;15.60;;